Cross City, FL

10:45 AM EDT on October 01, 2014 (GMT -0400)
Crystal River | Change Station
CLOSE
Current Station
Airport
Location: Crystal River,
Elevation: 10 ft
Nearby Weather Stations

Elev 10 ft 28.87 °N, 82.57 °W | Updated 9 hours ago

Mostly Cloudy
Mostly Cloudy
84 °F
Feels Like 88 °F
N
5
Wind Variable Wind from NNE
Gusts 10 mph

Today
High -- | Low -- °F
--% Chance of Precip.
Yesterday
High -- | Low -- °F
Precip. -- in
7:25 AM 7:17 PM
Waxing Crescent, 48% visible
Pressure 29.83 in
Visibility 4.0 miles
Clouds Mostly Cloudy 200 ft
Overcast 1700 ft
Heat Index 88 °F
Dew Point 70 °F
Humidity 60%
Rainfall 0.00 in
Snow Depth Not available.
UV 0 out of 12
Pollen 8.40 out of 12
Air Quality Not available.
Flu Activity Not available.
METAR KCGC 300535Z AUTO 00000KT 4SM BKN002 OVC017 22/21 A2983 RMK AO2 PWINO

More Conditions Fewer Conditions

Pressure 29.83 in
Visibility 4.0 miles
Clouds Mostly Cloudy 200 ft
Overcast 1700 ft
Heat Index 88 °F
Dew Point 70 °F
Humidity 60%
Rainfall 0.00 in
Snow Depth Not available.
UV 0 out of 12
Pollen 8.40 out of 12
Air Quality Not available.
Flu Activity Not available.
METAR KCGC 300535Z AUTO 00000KT 4SM BKN002 OVC017 22/21 A2983 RMK AO2 PWINO

More Conditions Fewer Conditions

10-Day Weather Forecast

Almanac

Astronomy

Oct. 01, 2014 Rise Set
Actual Time 7:25 AM EDT 7:17 PM EDT
Civil Twilight 7:01 AM EDT 7:41 PM EDT
Nautical Twilight 6:34 AM EDT 8:09 PM EDT
Astronomical Twilight 6:06 AM EDT 8:37 PM EDT
Moon 2:07 PM EDT 12:07 AM EDT
Length of Visible Light 12h 39m
Length of Day
11h 52m
Tomorrow will be 1m 45s shorter.
Waxing Crescent, 48% of the Moon is Illuminated
Today
Waxing Crescent
Oct 1
First Quarter
Oct 8
Full
Oct 15
Last Quarter
Oct 23
New

Today's Extremes

State Highs State Lows

Community

WunderPhotos

Upload Photos

1,757,960 photos uploaded!

Nearby

Snow Depth

Station Depth Elevation
No new snow has been reported.

Earthquake Activity

City Distance Mag. Time & Date
No recent earthquake activity has been reported nearby.
Minimum magnitude displayed is 2.5.

Coastal Water Temperatures

Place Temperature
No Stations Reporting

Nearby Weather Stations